sensor_id;sensor_type;location;lat;lon;timestamp;P1;durP1;ratioP1;P2;durP2;ratioP2
5127;SDS011;2582;48.770;9.190;2023-05-16T00:01:33;9.40;;;8.50;;
5127;SDS011;2582;48.770;9.190;2023-05-16T00:03:59;9.47;;;8.43;;
5127;SDS011;2582;48.770;9.190;2023-05-16T00:06:25;12.83;;;10.13;;
5127;SDS011;2582;48.770;9.190;2023-05-16T00:08:50;9.60;;;8.80;;
5127;SDS011;2582;48.770;9.190;2023-05-16T00:11:16;9.07;;;8.27;;
5127;SDS011;2582;48.770;9.190;2023-05-16T00:13:42;9.40;;;8.50;;
5127;SDS011;2582;48.770;9.190;2023-05-16T00:16:08;10.43;;;9.50;;
5127;SDS011;2582;48.770;9.190;2023-05-16T00:18:34;10.67;;;9.77;;
5127;SDS011;2582;48.770;9.190;2023-05-16T00:21:03;9.37;;;8.47;;
5127;SDS011;2582;48.770;9.190;2023-05-16T00:23:30;9.67;;;8.77;;
5127;SDS011;2582;48.770;9.190;2023-05-16T00:25:55;11.30;;;9.83;;
5127;SDS011;2582;48.770;9.190;2023-05-16T00:28:21;11.23;;;10.23;;
5127;SDS011;2582;48.770;9.190;2023-05-16T00:30:47;10.43;;;9.50;;
5127;SDS011;2582;48.770;9.190;2023-05-16T00:33:12;10.80;;;9.80;;
5127;SDS011;2582;48.770;9.190;2023-05-16T00:35:38;10.70;;;9.63;;
5127;SDS011;2582;48.770;9.190;2023-05-16T00:38:04;9.77;;;8.97;;
5127;SDS011;2582;48.770;9.190;2023-05-16T00:40:30;11.23;;;10.27;;
5127;SDS011;2582;48.770;9.190;2023-05-16T00:42:55;10.60;;;9.70;;
5127;SDS011;2582;48.770;9.190;2023-05-16T00:45:21;11.17;;;10.17;;
5127;SDS011;2582;48.770;9.190;2023-05-16T00:47:46;12.23;;;11.03;;
5127;SDS011;2582;48.770;9.190;2023-05-16T00:50:12;13.80;;;12.37;;
5127;SDS011;2582;48.770;9.190;2023-05-16T00:52:38;14.33;;;13.00;;
5127;SDS011;2582;48.770;9.190;2023-05-16T00:55:04;14.83;;;13.33;;
5127;SDS011;2582;48.770;9.190;2023-05-16T00:57:30;15.13;;;13.63;;
5127;SDS011;2582;48.770;9.190;2023-05-16T00:59:55;14.07;;;12.40;;
5127;SDS011;2582;48.770;9.190;2023-05-16T01:02:21;15.43;;;13.90;;
5127;SDS011;2582;48.770;9.190;2023-05-16T01:04:47;15.10;;;13.63;;
5127;SDS011;2582;48.770;9.190;2023-05-16T01:07:13;15.17;;;13.67;;
5127;SDS011;2582;48.770;9.190;2023-05-16T01:09:39;18.20;;;16.30;;
5127;SDS011;2582;48.770;9.190;2023-05-16T01:17:42;21.20;;;19.10;;
5127;SDS011;2582;48.770;9.190;2023-05-16T01:20:37;22.37;;;19.90;;
5127;SDS011;2582;48.770;9.190;2023-05-16T01:28:40;25.83;;;23.27;;
5127;SDS011;2582;48.770;9.190;2023-05-16T01:31:06;28.73;;;26.03;;
5127;SDS011;2582;48.770;9.190;2023-05-16T01:33:31;27.43;;;24.67;;
5127;SDS011;2582;48.770;9.190;2023-05-16T01:36:11;28.67;;;24.03;;
5127;SDS011;2582;48.770;9.190;2023-05-16T01:38:40;26.33;;;23.63;;
5127;SDS011;2582;48.770;9.190;2023-05-16T01:41:09;30.73;;;26.80;;
5127;SDS011;2582;48.770;9.190;2023-05-16T01:43:43;31.30;;;27.47;;
5127;SDS011;2582;48.770;9.190;2023-05-16T01:46:15;29.17;;;25.80;;
5127;SDS011;2582;48.770;9.190;2023-05-16T01:51:44;27.87;;;24.60;;
5127;SDS011;2582;48.770;9.190;2023-05-16T01:54:16;29.30;;;26.27;;
5127;SDS011;2582;48.770;9.190;2023-05-16T01:56:49;31.23;;;27.90;;
5127;SDS011;2582;48.770;9.190;2023-05-16T01:59:18;31.50;;;28.20;;
5127;SDS011;2582;48.770;9.190;2023-05-16T02:01:45;33.80;;;30.20;;
5127;SDS011;2582;48.770;9.190;2023-05-16T02:04:11;33.17;;;29.07;;
5127;SDS011;2582;48.770;9.190;2023-05-16T02:06:39;34.17;;;30.47;;
5127;SDS011;2582;48.770;9.190;2023-05-16T02:09:05;34.87;;;30.50;;
5127;SDS011;2582;48.770;9.190;2023-05-16T02:11:30;35.80;;;32.00;;
5127;SDS011;2582;48.770;9.190;2023-05-16T02:13:56;33.07;;;29.27;;
5127;SDS011;2582;48.770;9.190;2023-05-16T02:16:22;33.23;;;29.90;;
5127;SDS011;2582;48.770;9.190;2023-05-16T02:18:47;34.50;;;29.40;;
5127;SDS011;2582;48.770;9.190;2023-05-16T02:21:13;37.10;;;29.53;;
5127;SDS011;2582;48.770;9.190;2023-05-16T02:23:38;33.90;;;30.30;;
5127;SDS011;2582;48.770;9.190;2023-05-16T02:26:04;38.20;;;32.30;;
5127;SDS011;2582;48.770;9.190;2023-05-16T02:28:30;34.83;;;29.17;;
5127;SDS011;2582;48.770;9.190;2023-05-16T02:30:56;33.20;;;29.63;;
5127;SDS011;2582;48.770;9.190;2023-05-16T02:33:22;34.10;;;29.30;;
5127;SDS011;2582;48.770;9.190;2023-05-16T02:35:49;38.87;;;32.00;;
5127;SDS011;2582;48.770;9.190;2023-05-16T02:38:14;33.70;;;30.03;;
5127;SDS011;2582;48.770;9.190;2023-05-16T02:40:41;39.27;;;33.53;;
5127;SDS011;2582;48.770;9.190;2023-05-16T02:43:07;41.23;;;33.17;;
5127;SDS011;2582;48.770;9.190;2023-05-16T02:45:32;34.40;;;29.00;;
5127;SDS011;2582;48.770;9.190;2023-05-16T02:47:58;36.13;;;30.43;;
5127;SDS011;2582;48.770;9.190;2023-05-16T02:50:23;36.13;;;30.97;;
5127;SDS011;2582;48.770;9.190;2023-05-16T02:52:49;37.00;;;31.80;;
5127;SDS011;2582;48.770;9.190;2023-05-16T02:55:15;37.37;;;30.80;;
5127;SDS011;2582;48.770;9.190;2023-05-16T02:57:40;36.77;;;30.60;;
5127;SDS011;2582;48.770;9.190;2023-05-16T03:00:06;34.33;;;30.20;;
5127;SDS011;2582;48.770;9.190;2023-05-16T03:02:33;40.77;;;31.33;;
5127;SDS011;2582;48.770;9.190;2023-05-16T03:04:59;39.27;;;33.10;;
5127;SDS011;2582;48.770;9.190;2023-05-16T03:07:25;39.10;;;31.80;;
5127;SDS011;2582;48.770;9.190;2023-05-16T03:09:50;38.47;;;31.60;;
5127;SDS011;2582;48.770;9.190;2023-05-16T03:12:16;37.20;;;32.50;;
5127;SDS011;2582;48.770;9.190;2023-05-16T03:14:41;37.13;;;31.30;;
5127;SDS011;2582;48.770;9.190;2023-05-16T03:17:07;40.17;;;32.50;;
5127;SDS011;2582;48.770;9.190;2023-05-16T03:19:33;40.00;;;31.97;;
5127;SDS011;2582;48.770;9.190;2023-05-16T03:21:58;44.47;;;33.73;;
5127;SDS011;2582;48.770;9.190;2023-05-16T03:24:24;40.33;;;33.47;;
5127;SDS011;2582;48.770;9.190;2023-05-16T03:26:50;43.03;;;33.93;;
5127;SDS011;2582;48.770;9.190;2023-05-16T03:29:16;41.37;;;34.20;;
5127;SDS011;2582;48.770;9.190;2023-05-16T03:31:41;44.97;;;33.57;;
5127;SDS011;2582;48.770;9.190;2023-05-16T03:34:07;40.87;;;35.40;;
5127;SDS011;2582;48.770;9.190;2023-05-16T03:36:33;52.20;;;40.77;;
5127;SDS011;2582;48.770;9.190;2023-05-16T03:38:59;42.83;;;33.80;;
5127;SDS011;2582;48.770;9.190;2023-05-16T03:41:25;42.10;;;34.53;;
5127;SDS011;2582;48.770;9.190;2023-05-16T03:43:51;49.50;;;35.87;;
5127;SDS011;2582;48.770;9.190;2023-05-16T03:46:16;47.30;;;36.90;;
5127;SDS011;2582;48.770;9.190;2023-05-16T03:48:42;45.97;;;35.97;;
5127;SDS011;2582;48.770;9.190;2023-05-16T03:51:07;49.60;;;37.03;;
5127;SDS011;2582;48.770;9.190;2023-05-16T03:53:33;52.70;;;38.37;;
5127;SDS011;2582;48.770;9.190;2023-05-16T03:55:58;50.60;;;39.80;;
5127;SDS011;2582;48.770;9.190;2023-05-16T03:58:24;45.07;;;36.43;;
5127;SDS011;2582;48.770;9.190;2023-05-16T04:00:49;47.73;;;36.80;;
5127;SDS011;2582;48.770;9.190;2023-05-16T04:03:15;46.97;;;37.10;;
5127;SDS011;2582;48.770;9.190;2023-05-16T04:05:40;56.70;;;41.10;;
5127;SDS011;2582;48.770;9.190;2023-05-16T04:08:06;42.90;;;34.90;;
5127;SDS011;2582;48.770;9.190;2023-05-16T04:10:32;51.30;;;39.43;;
5127;SDS011;2582;48.770;9.190;2023-05-16T04:12:57;48.43;;;38.57;;
5127;SDS011;2582;48.770;9.190;2023-05-16T04:15:23;52.00;;;40.93;;
5127;SDS011;2582;48.770;9.190;2023-05-16T04:17:48;49.10;;;37.50;;
5127;SDS011;2582;48.770;9.190;2023-05-16T04:20:14;48.20;;;38.67;;
5127;SDS011;2582;48.770;9.190;2023-05-16T04:22:40;49.80;;;38.53;;
5127;SDS011;2582;48.770;9.190;2023-05-16T04:25:06;48.20;;;38.57;;
5127;SDS011;2582;48.770;9.190;2023-05-16T04:27:32;47.57;;;37.77;;
5127;SDS011;2582;48.770;9.190;2023-05-16T04:29:57;52.90;;;38.60;;
5127;SDS011;2582;48.770;9.190;2023-05-16T04:32:23;49.73;;;39.93;;
5127;SDS011;2582;48.770;9.190;2023-05-16T04:34:49;50.63;;;39.47;;
5127;SDS011;2582;48.770;9.190;2023-05-16T04:37:18;52.93;;;41.30;;
5127;SDS011;2582;48.770;9.190;2023-05-16T04:39:44;48.83;;;36.17;;
5127;SDS011;2582;48.770;9.190;2023-05-16T04:42:10;48.23;;;38.00;;
5127;SDS011;2582;48.770;9.190;2023-05-16T04:44:36;56.33;;;42.40;;
5127;SDS011;2582;48.770;9.190;2023-05-16T04:47:01;52.53;;;41.00;;
5127;SDS011;2582;48.770;9.190;2023-05-16T04:49:27;46.13;;;36.83;;
5127;SDS011;2582;48.770;9.190;2023-05-16T04:51:53;48.37;;;37.30;;
5127;SDS011;2582;48.770;9.190;2023-05-16T04:54:18;45.53;;;36.73;;
5127;SDS011;2582;48.770;9.190;2023-05-16T04:56:44;49.63;;;39.60;;
5127;SDS011;2582;48.770;9.190;2023-05-16T04:59:09;51.17;;;39.03;;
5127;SDS011;2582;48.770;9.190;2023-05-16T05:01:35;49.43;;;37.73;;
5127;SDS011;2582;48.770;9.190;2023-05-16T05:04:01;52.57;;;40.13;;
5127;SDS011;2582;48.770;9.190;2023-05-16T05:06:26;50.07;;;38.67;;
5127;SDS011;2582;48.770;9.190;2023-05-16T05:08:52;49.80;;;38.77;;
5127;SDS011;2582;48.770;9.190;2023-05-16T05:11:18;50.83;;;39.77;;
5127;SDS011;2582;48.770;9.190;2023-05-16T05:13:45;49.20;;;37.80;;
5127;SDS011;2582;48.770;9.190;2023-05-16T05:16:10;49.67;;;37.93;;
5127;SDS011;2582;48.770;9.190;2023-05-16T05:18:37;50.87;;;40.83;;
5127;SDS011;2582;48.770;9.190;2023-05-16T05:21:03;52.27;;;38.80;;
5127;SDS011;2582;48.770;9.190;2023-05-16T05:23:28;50.40;;;40.00;;
5127;SDS011;2582;48.770;9.190;2023-05-16T05:25:54;46.13;;;38.00;;
5127;SDS011;2582;48.770;9.190;2023-05-16T05:28:20;48.10;;;35.77;;
5127;SDS011;2582;48.770;9.190;2023-05-16T05:30:46;53.20;;;39.13;;
5127;SDS011;2582;48.770;9.190;2023-05-16T05:33:13;52.93;;;37.30;;
5127;SDS011;2582;48.770;9.190;2023-05-16T05:35:40;50.90;;;39.60;;
5127;SDS011;2582;48.770;9.190;2023-05-16T05:38:06;49.93;;;39.97;;
5127;SDS011;2582;48.770;9.190;2023-05-16T05:40:31;54.50;;;41.80;;
5127;SDS011;2582;48.770;9.190;2023-05-16T05:42:57;47.60;;;37.03;;
5127;SDS011;2582;48.770;9.190;2023-05-16T05:45:23;55.40;;;41.33;;
5127;SDS011;2582;48.770;9.190;2023-05-16T05:47:48;48.87;;;37.90;;
5127;SDS011;2582;48.770;9.190;2023-05-16T05:50:14;50.87;;;40.80;;
5127;SDS011;2582;48.770;9.190;2023-05-16T05:52:40;44.27;;;36.60;;
5127;SDS011;2582;48.770;9.190;2023-05-16T05:55:06;42.50;;;36.30;;
5127;SDS011;2582;48.770;9.190;2023-05-16T05:57:32;46.93;;;37.93;;
5127;SDS011;2582;48.770;9.190;2023-05-16T05:59:57;43.53;;;34.73;;
5127;SDS011;2582;48.770;9.190;2023-05-16T06:02:23;47.60;;;35.17;;
5127;SDS011;2582;48.770;9.190;2023-05-16T06:04:48;44.93;;;36.93;;
5127;SDS011;2582;48.770;9.190;2023-05-16T06:07:14;48.47;;;36.47;;
5127;SDS011;2582;48.770;9.190;2023-05-16T06:09:41;49.53;;;38.90;;
5127;SDS011;2582;48.770;9.190;2023-05-16T06:12:07;46.97;;;36.70;;
5127;SDS011;2582;48.770;9.190;2023-05-16T06:14:33;44.93;;;36.37;;
5127;SDS011;2582;48.770;9.190;2023-05-16T06:16:58;45.43;;;35.97;;
5127;SDS011;2582;48.770;9.190;2023-05-16T06:19:24;44.70;;;33.87;;
5127;SDS011;2582;48.770;9.190;2023-05-16T06:21:50;38.23;;;33.77;;
5127;SDS011;2582;48.770;9.190;2023-05-16T06:24:15;45.13;;;34.13;;
5127;SDS011;2582;48.770;9.190;2023-05-16T06:26:41;45.43;;;35.90;;
5127;SDS011;2582;48.770;9.190;2023-05-16T06:29:06;41.00;;;32.77;;
5127;SDS011;2582;48.770;9.190;2023-05-16T06:31:32;46.50;;;34.43;;
5127;SDS011;2582;48.770;9.190;2023-05-16T06:33:57;40.90;;;33.57;;
5127;SDS011;2582;48.770;9.190;2023-05-16T06:36:23;47.50;;;34.40;;
5127;SDS011;2582;48.770;9.190;2023-05-16T06:38:49;41.37;;;34.70;;
5127;SDS011;2582;48.770;9.190;2023-05-16T06:41:14;39.13;;;32.60;;
5127;SDS011;2582;48.770;9.190;2023-05-16T06:43:40;38.47;;;32.13;;
5127;SDS011;2582;48.770;9.190;2023-05-16T06:46:06;42.70;;;33.97;;
5127;SDS011;2582;48.770;9.190;2023-05-16T06:48:31;35.23;;;29.97;;
5127;SDS011;2582;48.770;9.190;2023-05-16T06:50:57;37.93;;;29.30;;
5127;SDS011;2582;48.770;9.190;2023-05-16T06:53:22;40.77;;;33.63;;
5127;SDS011;2582;48.770;9.190;2023-05-16T06:55:48;39.73;;;31.87;;
5127;SDS011;2582;48.770;9.190;2023-05-16T06:58:13;39.00;;;31.57;;
5127;SDS011;2582;48.770;9.190;2023-05-16T07:00:39;38.40;;;29.07;;
5127;SDS011;2582;48.770;9.190;2023-05-16T07:03:05;38.30;;;32.37;;
5127;SDS011;2582;48.770;9.190;2023-05-16T07:05:31;38.03;;;30.90;;
5127;SDS011;2582;48.770;9.190;2023-05-16T07:07:56;31.90;;;28.47;;
5127;SDS011;2582;48.770;9.190;2023-05-16T07:10:22;37.00;;;29.13;;
5127;SDS011;2582;48.770;9.190;2023-05-16T07:12:47;35.50;;;29.47;;
5127;SDS011;2582;48.770;9.190;2023-05-16T07:15:13;32.53;;;28.07;;
5127;SDS011;2582;48.770;9.190;2023-05-16T07:17:39;41.23;;;29.00;;
5127;SDS011;2582;48.770;9.190;2023-05-16T07:20:05;32.63;;;27.93;;
5127;SDS011;2582;48.770;9.190;2023-05-16T07:22:32;31.53;;;26.57;;
5127;SDS011;2582;48.770;9.190;2023-05-16T07:24:57;30.10;;;25.57;;
5127;SDS011;2582;48.770;9.190;2023-05-16T07:27:25;28.83;;;24.07;;
5127;SDS011;2582;48.770;9.190;2023-05-16T07:29:51;28.43;;;24.37;;
5127;SDS011;2582;48.770;9.190;2023-05-16T07:32:16;28.80;;;23.13;;
5127;SDS011;2582;48.770;9.190;2023-05-16T07:34:42;22.20;;;19.90;;
5127;SDS011;2582;48.770;9.190;2023-05-16T07:37:08;20.43;;;18.40;;
5127;SDS011;2582;48.770;9.190;2023-05-16T07:39:37;21.37;;;19.00;;
5127;SDS011;2582;48.770;9.190;2023-05-16T07:42:03;19.33;;;17.40;;
5127;SDS011;2582;48.770;9.190;2023-05-16T07:44:30;19.27;;;16.83;;
5127;SDS011;2582;48.770;9.190;2023-05-16T07:46:56;17.93;;;16.00;;
5127;SDS011;2582;48.770;9.190;2023-05-16T07:49:21;17.77;;;16.07;;
5127;SDS011;2582;48.770;9.190;2023-05-16T07:51:47;15.87;;;14.27;;
5127;SDS011;2582;48.770;9.190;2023-05-16T07:54:12;14.30;;;12.87;;
5127;SDS011;2582;48.770;9.190;2023-05-16T07:56:38;14.60;;;13.20;;
5127;SDS011;2582;48.770;9.190;2023-05-16T07:59:03;15.10;;;13.10;;
5127;SDS011;2582;48.770;9.190;2023-05-16T08:01:29;15.27;;;13.87;;
5127;SDS011;2582;48.770;9.190;2023-05-16T08:03:55;13.67;;;12.47;;
5127;SDS011;2582;48.770;9.190;2023-05-16T08:06:21;13.77;;;12.50;;
5127;SDS011;2582;48.770;9.190;2023-05-16T08:08:46;13.70;;;12.40;;
5127;SDS011;2582;48.770;9.190;2023-05-16T08:11:12;15.03;;;13.53;;
5127;SDS011;2582;48.770;9.190;2023-05-16T08:13:37;15.27;;;13.90;;
5127;SDS011;2582;48.770;9.190;2023-05-16T08:16:03;15.57;;;14.17;;
5127;SDS011;2582;48.770;9.190;2023-05-16T08:18:28;15.13;;;13.53;;
5127;SDS011;2582;48.770;9.190;2023-05-16T08:20:54;14.77;;;13.37;;
5127;SDS011;2582;48.770;9.190;2023-05-16T08:23:20;15.70;;;14.10;;
5127;SDS011;2582;48.770;9.190;2023-05-16T08:25:45;15.07;;;13.60;;
5127;SDS011;2582;48.770;9.190;2023-05-16T08:28:11;17.03;;;15.43;;
5127;SDS011;2582;48.770;9.190;2023-05-16T08:30:37;16.27;;;14.67;;
5127;SDS011;2582;48.770;9.190;2023-05-16T08:33:02;15.00;;;13.50;;
5127;SDS011;2582;48.770;9.190;2023-05-16T08:35:29;14.90;;;13.60;;
5127;SDS011;2582;48.770;9.190;2023-05-16T08:37:55;16.27;;;14.63;;
5127;SDS011;2582;48.770;9.190;2023-05-16T08:40:21;15.60;;;14.00;;
5127;SDS011;2582;48.770;9.190;2023-05-16T08:42:52;15.83;;;14.33;;
5127;SDS011;2582;48.770;9.190;2023-05-16T08:45:18;17.03;;;15.27;;
5127;SDS011;2582;48.770;9.190;2023-05-16T08:47:43;19.10;;;17.13;;
5127;SDS011;2582;48.770;9.190;2023-05-16T08:50:11;19.23;;;17.30;;
5127;SDS011;2582;48.770;9.190;2023-05-16T08:52:38;20.43;;;18.43;;
5127;SDS011;2582;48.770;9.190;2023-05-16T08:55:07;19.33;;;17.40;;
5127;SDS011;2582;48.770;9.190;2023-05-16T08:57:34;20.33;;;18.23;;
5127;SDS011;2582;48.770;9.190;2023-05-16T08:59:59;19.10;;;17.17;;
5127;SDS011;2582;48.770;9.190;2023-05-16T09:02:26;20.37;;;18.40;;
5127;SDS011;2582;48.770;9.190;2023-05-16T09:04:53;19.77;;;17.63;;
5127;SDS011;2582;48.770;9.190;2023-05-16T09:07:21;19.67;;;17.67;;
5127;SDS011;2582;48.770;9.190;2023-05-16T09:09:47;20.87;;;18.50;;
5127;SDS011;2582;48.770;9.190;2023-05-16T09:12:13;20.60;;;18.50;;
5127;SDS011;2582;48.770;9.190;2023-05-16T09:14:38;22.47;;;19.37;;
5127;SDS011;2582;48.770;9.190;2023-05-16T09:17:05;21.03;;;18.80;;
5127;SDS011;2582;48.770;9.190;2023-05-16T09:22:04;21.73;;;19.43;;
5127;SDS011;2582;48.770;9.190;2023-05-16T09:24:36;19.10;;;17.20;;
5127;SDS011;2582;48.770;9.190;2023-05-16T09:27:09;23.00;;;19.63;;
5127;SDS011;2582;48.770;9.190;2023-05-16T09:29:36;22.00;;;19.80;;
5127;SDS011;2582;48.770;9.190;2023-05-16T09:32:14;22.47;;;18.97;;
5127;SDS011;2582;48.770;9.190;2023-05-16T09:34:44;22.07;;;19.77;;
5127;SDS011;2582;48.770;9.190;2023-05-16T09:37:13;24.40;;;21.83;;
5127;SDS011;2582;48.770;9.190;2023-05-16T09:39:46;23.33;;;20.53;;
5127;SDS011;2582;48.770;9.190;2023-05-16T09:42:13;24.07;;;21.47;;
5127;SDS011;2582;48.770;9.190;2023-05-16T09:44:40;22.67;;;20.37;;
5127;SDS011;2582;48.770;9.190;2023-05-16T09:47:12;26.70;;;22.53;;
5127;SDS011;2582;48.770;9.190;2023-05-16T09:49:40;27.07;;;24.17;;
5127;SDS011;2582;48.770;9.190;2023-05-16T09:52:05;31.20;;;22.60;;
5127;SDS011;2582;48.770;9.190;2023-05-16T09:54:31;23.90;;;21.07;;
5127;SDS011;2582;48.770;9.190;2023-05-16T09:56:58;23.00;;;20.60;;
5127;SDS011;2582;48.770;9.190;2023-05-16T09:59:24;22.37;;;19.83;;
5127;SDS011;2582;48.770;9.190;2023-05-16T10:01:52;21.10;;;19.00;;
5127;SDS011;2582;48.770;9.190;2023-05-16T10:04:19;24.60;;;21.53;;
5127;SDS011;2582;48.770;9.190;2023-05-16T10:06:44;23.83;;;21.23;;
5127;SDS011;2582;48.770;9.190;2023-05-16T10:09:11;24.30;;;21.80;;
5127;SDS011;2582;48.770;9.190;2023-05-16T10:11:41;23.10;;;20.40;;
5127;SDS011;2582;48.770;9.190;2023-05-16T10:14:10;22.97;;;19.53;;
5127;SDS011;2582;48.770;9.190;2023-05-16T10:16:39;23.80;;;21.17;;
5127;SDS011;2582;48.770;9.190;2023-05-16T10:19:07;25.53;;;22.93;;
5127;SDS011;2582;48.770;9.190;2023-05-16T10:21:33;23.77;;;20.23;;
5127;SDS011;2582;48.770;9.190;2023-05-16T10:24:02;24.57;;;21.80;;
5127;SDS011;2582;48.770;9.190;2023-05-16T10:26:30;25.70;;;21.63;;
5127;SDS011;2582;48.770;9.190;2023-05-16T10:28:57;20.97;;;18.27;;
5127;SDS011;2582;48.770;9.190;2023-05-16T10:31:23;22.83;;;19.50;;
5127;SDS011;2582;48.770;9.190;2023-05-16T10:33:49;23.30;;;19.50;;
5127;SDS011;2582;48.770;9.190;2023-05-16T10:36:15;22.33;;;19.87;;
5127;SDS011;2582;48.770;9.190;2023-05-16T10:38:42;23.23;;;20.83;;
5127;SDS011;2582;48.770;9.190;2023-05-16T10:41:09;22.70;;;20.20;;
5127;SDS011;2582;48.770;9.190;2023-05-16T10:43:35;21.60;;;19.40;;
5127;SDS011;2582;48.770;9.190;2023-05-16T10:46:02;21.37;;;18.23;;
5127;SDS011;2582;48.770;9.190;2023-05-16T10:48:30;23.10;;;18.50;;
5127;SDS011;2582;48.770;9.190;2023-05-16T10:54:03;23.50;;;19.83;;
5127;SDS011;2582;48.770;9.190;2023-05-16T10:56:33;22.13;;;19.87;;
5127;SDS011;2582;48.770;9.190;2023-05-16T10:58:59;25.13;;;19.90;;
5127;SDS011;2582;48.770;9.190;2023-05-16T11:06:27;22.43;;;19.90;;
5127;SDS011;2582;48.770;9.190;2023-05-16T11:09:36;22.90;;;18.30;;
5127;SDS011;2582;48.770;9.190;2023-05-16T11:11:59;17.13;;;15.33;;
5127;SDS011;2582;48.770;9.190;2023-05-16T11:14:25;20.43;;;16.17;;
5127;SDS011;2582;48.770;9.190;2023-05-16T11:17:01;24.67;;;17.47;;
5127;SDS011;2582;48.770;9.190;2023-05-16T11:22:33;22.77;;;17.93;;
5127;SDS011;2582;48.770;9.190;2023-05-16T11:25:05;22.87;;;17.60;;
5127;SDS011;2582;48.770;9.190;2023-05-16T11:27:33;22.80;;;18.77;;
5127;SDS011;2582;48.770;9.190;2023-05-16T11:30:00;24.40;;;16.70;;
5127;SDS011;2582;48.770;9.190;2023-05-16T11:32:26;19.10;;;15.83;;
5127;SDS011;2582;48.770;9.190;2023-05-16T11:34:52;18.30;;;15.90;;
5127;SDS011;2582;48.770;9.190;2023-05-16T11:37:18;22.20;;;17.67;;
5127;SDS011;2582;48.770;9.190;2023-05-16T11:39:45;18.03;;;14.23;;
5127;SDS011;2582;48.770;9.190;2023-05-16T11:42:10;19.03;;;15.67;;
5127;SDS011;2582;48.770;9.190;2023-05-16T11:44:37;17.13;;;14.40;;
5127;SDS011;2582;48.770;9.190;2023-05-16T11:47:04;14.30;;;11.40;;
5127;SDS011;2582;48.770;9.190;2023-05-16T11:49:29;15.43;;;13.00;;
5127;SDS011;2582;48.770;9.190;2023-05-16T11:51:55;14.47;;;12.60;;
5127;SDS011;2582;48.770;9.190;2023-05-16T11:54:24;14.97;;;13.47;;
5127;SDS011;2582;48.770;9.190;2023-05-16T11:56:50;14.90;;;12.73;;
5127;SDS011;2582;48.770;9.190;2023-05-16T11:59:16;14.40;;;12.90;;
5127;SDS011;2582;48.770;9.190;2023-05-16T12:01:42;14.43;;;12.17;;
5127;SDS011;2582;48.770;9.190;2023-05-16T12:04:11;14.63;;;11.70;;
5127;SDS011;2582;48.770;9.190;2023-05-16T12:06:38;14.30;;;12.83;;
5127;SDS011;2582;48.770;9.190;2023-05-16T12:09:10;14.83;;;12.60;;
5127;SDS011;2582;48.770;9.190;2023-05-16T12:11:36;14.70;;;13.20;;
5127;SDS011;2582;48.770;9.190;2023-05-16T12:14:03;14.00;;;12.50;;
5127;SDS011;2582;48.770;9.190;2023-05-16T12:16:30;15.37;;;13.17;;
5127;SDS011;2582;48.770;9.190;2023-05-16T12:18:56;14.63;;;13.13;;
5127;SDS011;2582;48.770;9.190;2023-05-16T12:21:22;14.73;;;12.10;;
5127;SDS011;2582;48.770;9.190;2023-05-16T12:23:48;14.23;;;12.73;;
5127;SDS011;2582;48.770;9.190;2023-05-16T12:26:14;12.07;;;10.87;;
5127;SDS011;2582;48.770;9.190;2023-05-16T12:28:47;12.00;;;10.63;;
5127;SDS011;2582;48.770;9.190;2023-05-16T12:31:20;15.00;;;11.43;;
5127;SDS011;2582;48.770;9.190;2023-05-16T12:33:45;12.40;;;11.10;;
5127;SDS011;2582;48.770;9.190;2023-05-16T12:36:12;9.67;;;8.70;;
5127;SDS011;2582;48.770;9.190;2023-05-16T12:38:39;11.23;;;10.03;;
5127;SDS011;2582;48.770;9.190;2023-05-16T12:41:06;15.73;;;8.90;;
5127;SDS011;2582;48.770;9.190;2023-05-16T12:43:31;9.67;;;8.30;;
5127;SDS011;2582;48.770;9.190;2023-05-16T12:45:57;7.93;;;6.83;;
5127;SDS011;2582;48.770;9.190;2023-05-16T12:48:23;7.43;;;6.33;;
5127;SDS011;2582;48.770;9.190;2023-05-16T12:51:07;7.43;;;6.70;;
5127;SDS011;2582;48.770;9.190;2023-05-16T12:53:47;8.20;;;6.57;;
5127;SDS011;2582;48.770;9.190;2023-05-16T12:56:13;7.20;;;6.50;;
5127;SDS011;2582;48.770;9.190;2023-05-16T12:58:40;6.90;;;6.20;;
5127;SDS011;2582;48.770;9.190;2023-05-16T13:01:06;7.03;;;6.33;;
5127;SDS011;2582;48.770;9.190;2023-05-16T13:03:32;6.73;;;6.07;;
5127;SDS011;2582;48.770;9.190;2023-05-16T13:05:59;6.40;;;5.80;;
5127;SDS011;2582;48.770;9.190;2023-05-16T13:08:25;6.93;;;5.40;;
5127;SDS011;2582;48.770;9.190;2023-05-16T13:10:51;7.00;;;6.03;;
5127;SDS011;2582;48.770;9.190;2023-05-16T13:13:17;6.57;;;5.77;;
5127;SDS011;2582;48.770;9.190;2023-05-16T13:15:43;6.90;;;5.20;;
5127;SDS011;2582;48.770;9.190;2023-05-16T13:18:09;5.90;;;5.40;;
5127;SDS011;2582;48.770;9.190;2023-05-16T13:20:36;5.90;;;5.30;;
5127;SDS011;2582;48.770;9.190;2023-05-16T13:23:02;6.10;;;5.40;;
5127;SDS011;2582;48.770;9.190;2023-05-16T13:25:29;4.97;;;4.57;;
5127;SDS011;2582;48.770;9.190;2023-05-16T13:27:55;5.23;;;4.73;;
5127;SDS011;2582;48.770;9.190;2023-05-16T13:30:20;4.50;;;4.10;;
5127;SDS011;2582;48.770;9.190;2023-05-16T13:32:46;4.17;;;3.83;;
5127;SDS011;2582;48.770;9.190;2023-05-16T13:35:12;6.30;;;4.47;;
5127;SDS011;2582;48.770;9.190;2023-05-16T13:37:38;4.63;;;4.23;;
5127;SDS011;2582;48.770;9.190;2023-05-16T13:40:05;4.67;;;4.23;;
5127;SDS011;2582;48.770;9.190;2023-05-16T13:42:34;4.93;;;3.50;;
5127;SDS011;2582;48.770;9.190;2023-05-16T13:45:01;5.13;;;4.57;;
5127;SDS011;2582;48.770;9.190;2023-05-16T13:47:27;4.00;;;3.60;;
5127;SDS011;2582;48.770;9.190;2023-05-16T13:49:53;4.17;;;3.87;;
5127;SDS011;2582;48.770;9.190;2023-05-16T13:52:19;5.20;;;4.00;;
5127;SDS011;2582;48.770;9.190;2023-05-16T13:54:45;5.33;;;4.40;;
5127;SDS011;2582;48.770;9.190;2023-05-16T13:57:10;5.07;;;4.27;;
5127;SDS011;2582;48.770;9.190;2023-05-16T13:59:36;4.67;;;4.23;;
5127;SDS011;2582;48.770;9.190;2023-05-16T14:02:01;4.80;;;4.40;;
5127;SDS011;2582;48.770;9.190;2023-05-16T14:04:27;6.73;;;4.40;;
5127;SDS011;2582;48.770;9.190;2023-05-16T14:06:53;9.90;;;4.47;;
5127;SDS011;2582;48.770;9.190;2023-05-16T14:09:20;16.90;;;10.13;;
5127;SDS011;2582;48.770;9.190;2023-05-16T14:11:45;19.93;;;14.60;;
5127;SDS011;2582;48.770;9.190;2023-05-16T14:14:11;5.20;;;4.70;;
5127;SDS011;2582;48.770;9.190;2023-05-16T14:16:36;31.03;;;22.90;;
5127;SDS011;2582;48.770;9.190;2023-05-16T14:19:02;6.70;;;5.50;;
5127;SDS011;2582;48.770;9.190;2023-05-16T14:21:27;13.10;;;10.87;;
5127;SDS011;2582;48.770;9.190;2023-05-16T14:23:53;9.77;;;5.53;;
5127;SDS011;2582;48.770;9.190;2023-05-16T14:26:18;5.00;;;4.17;;
5127;SDS011;2582;48.770;9.190;2023-05-16T14:28:49;8.93;;;5.83;;
5127;SDS011;2582;48.770;9.190;2023-05-16T14:31:15;8.97;;;8.07;;
5127;SDS011;2582;48.770;9.190;2023-05-16T14:33:40;7.40;;;5.00;;
5127;SDS011;2582;48.770;9.190;2023-05-16T14:36:07;5.50;;;4.57;;
5127;SDS011;2582;48.770;9.190;2023-05-16T14:38:33;4.53;;;4.23;;
5127;SDS011;2582;48.770;9.190;2023-05-16T14:40:59;5.10;;;4.60;;
5127;SDS011;2582;48.770;9.190;2023-05-16T14:43:25;3.90;;;3.50;;
5127;SDS011;2582;48.770;9.190;2023-05-16T14:45:50;4.90;;;3.60;;
5127;SDS011;2582;48.770;9.190;2023-05-16T14:48:16;3.40;;;3.07;;
5127;SDS011;2582;48.770;9.190;2023-05-16T14:50:41;3.73;;;3.30;;
5127;SDS011;2582;48.770;9.190;2023-05-16T14:53:07;8.47;;;3.37;;
5127;SDS011;2582;48.770;9.190;2023-05-16T14:55:33;4.57;;;3.47;;
5127;SDS011;2582;48.770;9.190;2023-05-16T14:57:58;3.20;;;2.90;;
5127;SDS011;2582;48.770;9.190;2023-05-16T15:00:24;4.00;;;2.40;;
5127;SDS011;2582;48.770;9.190;2023-05-16T15:02:50;4.27;;;3.07;;
5127;SDS011;2582;48.770;9.190;2023-05-16T15:05:16;3.30;;;2.37;;
5127;SDS011;2582;48.770;9.190;2023-05-16T15:07:42;6.90;;;2.57;;
5127;SDS011;2582;48.770;9.190;2023-05-16T15:10:10;9.20;;;3.03;;
5127;SDS011;2582;48.770;9.190;2023-05-16T15:12:36;4.03;;;2.40;;
5127;SDS011;2582;48.770;9.190;2023-05-16T15:15:04;2.60;;;2.40;;
5127;SDS011;2582;48.770;9.190;2023-05-16T15:17:31;2.93;;;2.73;;